createdAt,value
2023-02-21T00:02:41.327Z,7.5
2023-02-21T00:07:40.565Z,8.1
2023-02-21T00:12:39.819Z,9.6
2023-02-21T00:17:39.047Z,7.3
2023-02-21T00:22:38.311Z,8.2
2023-02-21T00:27:37.567Z,9.3
2023-02-21T00:32:36.954Z,9.3
2023-02-21T00:37:36.048Z,8.4
2023-02-21T00:42:35.293Z,9.3
2023-02-21T00:47:34.553Z,9.1
2023-02-21T00:52:33.780Z,11.3
2023-02-21T00:57:33.020Z,10.2
2023-02-21T01:02:32.284Z,7.6
2023-02-21T01:07:31.516Z,6
2023-02-21T01:12:30.742Z,9.3
2023-02-21T01:17:29.941Z,4.6
2023-02-21T01:22:29.167Z,6.8
2023-02-21T01:27:28.351Z,8.7
2023-02-21T01:32:27.594Z,9.2
2023-02-21T01:37:26.785Z,7.8
2023-02-21T01:42:25.927Z,9.9
2023-02-21T01:47:25.109Z,8.5
2023-02-21T01:52:24.369Z,9.9
2023-02-21T01:57:23.464Z,8.3
2023-02-21T02:02:22.681Z,10.4
2023-02-21T02:07:21.872Z,6.9
2023-02-21T02:12:21.132Z,9.6
2023-02-21T02:17:20.277Z,7.6
2023-02-21T02:22:19.487Z,6
2023-02-21T02:27:18.669Z,8.7
2023-02-21T02:32:17.948Z,10.2
2023-02-21T02:37:17.111Z,6.6
2023-02-21T02:42:16.335Z,9.1
2023-02-21T02:47:15.554Z,5.7
2023-02-21T02:52:14.706Z,6.6
2023-02-21T02:57:13.902Z,6.4
2023-02-21T03:02:13.173Z,6.8
2023-02-21T03:07:12.326Z,4.9
2023-02-21T03:12:11.536Z,6
2023-02-21T03:17:10.734Z,4.8
2023-02-21T03:22:09.904Z,9.3
2023-02-21T03:27:09.104Z,5.5
2023-02-21T03:32:08.285Z,7.5
2023-02-21T03:37:07.421Z,8
2023-02-21T03:42:06.613Z,6.9
2023-02-21T03:47:05.844Z,8.1
2023-02-21T03:52:05.039Z,5.9
2023-02-21T03:57:04.194Z,6.9
2023-02-21T04:02:03.492Z,5.6
2023-02-21T04:07:02.641Z,6
2023-02-21T04:12:01.822Z,5.4
2023-02-21T04:17:00.993Z,6.8
2023-02-21T04:22:00.153Z,9.8
2023-02-21T04:26:59.323Z,36.6
2023-02-21T04:31:58.662Z,13.4
2023-02-21T04:36:57.733Z,10.2
2023-02-21T04:41:56.862Z,10.4
2023-02-21T04:46:56.030Z,7.8
2023-02-21T04:51:55.278Z,9.6
2023-02-21T04:56:54.477Z,7.9
2023-02-21T05:01:53.624Z,6.3
2023-02-21T05:06:52.742Z,9.7
2023-02-21T05:11:51.866Z,6.8
2023-02-21T05:16:51.131Z,8.1
2023-02-21T05:21:50.221Z,9.5
2023-02-21T05:26:49.367Z,8.4
2023-02-21T05:31:48.588Z,7.2
2023-02-21T05:36:47.725Z,9.4
2023-02-21T05:41:46.941Z,7.9
2023-02-21T05:46:46.080Z,4.9
2023-02-21T05:51:45.227Z,5.7
2023-02-21T05:56:44.415Z,7.3
2023-02-21T06:01:43.646Z,7.3
2023-02-21T06:06:42.864Z,6.1
2023-02-21T06:11:42.026Z,7.5
2023-02-21T06:16:41.182Z,8.2
2023-02-21T06:21:40.398Z,9.4
2023-02-21T06:26:39.595Z,7.9
2023-02-21T06:31:39.029Z,7.6
2023-02-21T06:36:38.023Z,15.2
2023-02-21T06:41:37.201Z,12.6
2023-02-21T06:46:36.525Z,10.4
2023-02-21T06:51:35.644Z,15
2023-02-21T06:56:34.925Z,13.5
2023-02-21T07:01:34.126Z,13.4
2023-02-21T07:06:33.331Z,9.2
2023-02-21T07:11:32.602Z,13
2023-02-21T07:16:31.917Z,13.4
2023-02-21T07:21:31.169Z,9.7
2023-02-21T07:26:30.456Z,9.1
2023-02-21T07:31:29.882Z,16.1
2023-02-21T07:36:29.025Z,9.4
2023-02-21T07:41:28.345Z,12.1
2023-02-21T07:46:28.758Z,15
2023-02-21T07:51:27.006Z,7.9
2023-02-21T07:56:26.305Z,10.9
2023-02-21T08:01:25.698Z,8.1
2023-02-21T08:06:24.997Z,8.9
2023-02-21T08:11:24.392Z,16.3
2023-02-21T08:16:23.748Z,10.7
2023-02-21T08:21:23.081Z,11.3
2023-02-21T08:26:22.410Z,13.2
2023-02-21T08:31:21.808Z,11.9
2023-02-21T08:36:21.181Z,9.5
2023-02-21T08:41:20.566Z,6.1
2023-02-21T08:46:19.958Z,11.2
2023-02-21T08:51:19.305Z,8.9
2023-02-21T08:56:18.693Z,10.3
2023-02-21T09:01:18.437Z,11.9
2023-02-21T09:06:17.486Z,8.7
2023-02-21T09:11:17.224Z,10.1
2023-02-21T09:16:16.400Z,8.2
2023-02-21T09:21:16.247Z,8.2
2023-02-21T09:26:15.153Z,9.9
2023-02-21T09:31:14.979Z,6.7
2023-02-21T09:36:14.041Z,9.1
2023-02-21T09:41:14.140Z,21.2
2023-02-21T09:46:12.859Z,14
2023-02-21T09:51:12.580Z,11.2
2023-02-21T09:56:11.764Z,6.9
2023-02-21T10:01:11.218Z,4.9
2023-02-21T10:06:10.636Z,5.3
2023-02-21T10:11:10.087Z,10.9
2023-02-21T10:16:09.644Z,7.9
2023-02-21T10:21:08.984Z,8
2023-02-21T10:26:08.470Z,4.9
2023-02-21T10:31:07.983Z,6.7
2023-02-21T10:36:07.417Z,6.3
2023-02-21T10:41:06.861Z,5.1
2023-02-21T10:46:06.375Z,6.1
2023-02-21T10:51:05.832Z,7.3
2023-02-21T10:56:05.335Z,1.9
2023-02-21T11:01:04.882Z,4.5
2023-02-21T11:06:04.377Z,5.7
2023-02-21T11:11:04.227Z,8.7
2023-02-21T11:16:03.522Z,7.1
2023-02-21T11:21:02.940Z,7.3
2023-02-21T11:26:02.496Z,4
2023-02-21T11:31:02.014Z,5.4
2023-02-21T11:36:01.540Z,2.7
2023-02-21T11:41:01.074Z,2.9
2023-02-21T11:46:00.616Z,3.5
2023-02-21T11:51:00.138Z,6.7
2023-02-21T11:55:59.706Z,3.8
2023-02-21T12:00:59.196Z,4.8
2023-02-21T12:05:58.779Z,10.2
2023-02-21T12:10:58.311Z,5.3
2023-02-21T12:15:57.981Z,6.7
2023-02-21T12:20:57.416Z,10.4
2023-02-21T12:25:57.006Z,4.4
2023-02-21T12:30:56.493Z,5.6
2023-02-21T12:35:56.055Z,2.4
2023-02-21T12:40:55.575Z,3.4
2023-02-21T12:45:55.116Z,6.9
2023-02-21T12:50:54.687Z,10.4
2023-02-21T12:55:54.178Z,4.9
2023-02-21T13:00:53.765Z,3.5
2023-02-21T13:05:53.301Z,7.9
2023-02-21T13:10:52.832Z,8.7
2023-02-21T13:15:52.435Z,3.9
2023-02-21T13:20:51.936Z,4.3
2023-02-21T13:25:51.488Z,2
2023-02-21T13:30:51.119Z,15.2
2023-02-21T13:35:50.605Z,4.3
2023-02-21T13:40:50.173Z,12.7
2023-02-21T13:45:49.747Z,11.6
2023-02-21T13:50:49.333Z,5.6
2023-02-21T13:55:48.903Z,6.2
2023-02-21T14:00:48.622Z,3.3
2023-02-21T14:05:48.061Z,5.7
2023-02-21T14:10:47.647Z,7.6
2023-02-21T14:15:47.191Z,4.9
2023-02-21T14:20:46.713Z,14.9
2023-02-21T14:25:46.247Z,6.8
2023-02-21T14:30:45.961Z,5.6
2023-02-21T14:35:45.353Z,2.6
2023-02-21T14:40:44.949Z,1.3
2023-02-21T14:45:44.600Z,3
2023-02-21T14:50:44.092Z,6.1
2023-02-21T14:55:43.679Z,3.5
2023-02-21T15:00:43.298Z,1.7
2023-02-21T15:05:42.856Z,1.7
2023-02-21T15:10:42.422Z,1.6
2023-02-21T15:15:42.048Z,5.6
2023-02-21T15:20:41.611Z,4.8
2023-02-21T15:25:41.143Z,5.6
2023-02-21T15:30:40.843Z,3.4
2023-02-21T15:35:40.319Z,7.3
2023-02-21T15:40:39.830Z,6.5
2023-02-21T15:45:39.394Z,10
2023-02-21T15:50:38.895Z,11.1
2023-02-21T15:55:38.444Z,3.8
2023-02-21T16:00:38.077Z,6
2023-02-21T16:05:37.512Z,4.8
2023-02-21T16:10:36.936Z,4.7
2023-02-21T16:15:36.509Z,5.5
2023-02-21T16:20:35.978Z,10.3
2023-02-21T16:25:35.507Z,21.7
2023-02-21T16:30:35.037Z,24.4
2023-02-21T16:35:34.490Z,25.6
2023-02-21T16:40:33.980Z,21.2
2023-02-21T16:45:33.397Z,14.3
2023-02-21T16:53:44.623Z,13.7
2023-02-21T16:55:32.343Z,24.6
2023-02-21T17:00:31.835Z,26.5
2023-02-21T17:05:31.329Z,18.2
2023-02-21T17:10:30.761Z,19.1
2023-02-21T17:15:30.215Z,15.1
2023-02-21T17:20:29.648Z,12.4
2023-02-21T17:25:29.252Z,7.6
2023-02-21T17:30:28.577Z,6.9
2023-02-21T17:35:27.972Z,12
2023-02-21T17:40:27.472Z,23.9
2023-02-21T17:45:26.860Z,16.8
2023-02-21T17:50:26.269Z,14.6
2023-02-21T17:55:25.699Z,7.8
2023-02-21T18:00:25.128Z,9.9
2023-02-21T18:05:24.561Z,8.7
2023-02-21T18:10:23.990Z,8.4
2023-02-21T18:15:23.399Z,9
2023-02-21T18:20:22.863Z,13.4
2023-02-21T18:25:22.111Z,11
2023-02-21T18:30:21.533Z,10.2
2023-02-21T18:35:20.894Z,13.6
2023-02-21T18:40:20.358Z,8.8
2023-02-21T18:45:19.683Z,9.4
2023-02-21T18:50:19.046Z,16.2
2023-02-21T18:55:18.493Z,11.3
2023-02-21T19:00:17.787Z,28
2023-02-21T19:05:17.184Z,48.2
2023-02-21T19:10:16.554Z,50.6
2023-02-21T19:15:15.881Z,17.3
2023-02-21T19:20:15.226Z,13.7
2023-02-21T19:25:14.640Z,14.6
2023-02-21T19:30:14.039Z,17.2
2023-02-21T19:35:13.275Z,15
2023-02-21T19:40:12.627Z,21.5
2023-02-21T19:45:12.008Z,20
2023-02-21T19:50:11.329Z,18.7
2023-02-21T19:55:10.677Z,23.9
2023-02-21T20:00:09.997Z,24.6
2023-02-21T20:05:09.355Z,21.6
2023-02-21T20:10:08.640Z,15.9
2023-02-21T20:15:07.939Z,22.2
2023-02-21T20:20:07.331Z,17.3
2023-02-21T20:25:06.586Z,16.2
2023-02-21T20:30:05.973Z,16.1
2023-02-21T20:35:05.209Z,18.2
2023-02-21T20:40:04.477Z,25.5
2023-02-21T20:45:03.809Z,24.1
2023-02-21T20:50:03.099Z,26
2023-02-21T20:55:02.418Z,28.9
2023-02-21T21:00:01.698Z,29.9
2023-02-21T21:05:01.067Z,29
2023-02-21T21:10:00.279Z,39.6
2023-02-21T21:14:59.551Z,43.5
2023-02-21T21:19:58.873Z,80.9
2023-02-21T21:24:58.121Z,70
2023-02-21T21:29:57.425Z,66.5
2023-02-21T21:34:56.721Z,52.8
2023-02-21T21:39:55.994Z,59.7
2023-02-21T21:44:55.270Z,55.7
2023-02-21T21:49:54.582Z,74.7
2023-02-21T21:54:53.844Z,83.9
2023-02-21T21:59:53.097Z,72.5
2023-02-21T22:04:52.328Z,76.2
2023-02-21T22:09:51.607Z,59.4
2023-02-21T22:14:50.918Z,55.5
2023-02-21T22:19:50.131Z,52.7
2023-02-21T22:24:49.412Z,44.2
2023-02-21T22:29:48.633Z,45.3
2023-02-21T22:34:47.854Z,38.7
2023-02-21T22:39:47.101Z,41.4
2023-02-21T22:44:46.341Z,33.5
2023-02-21T22:49:45.606Z,29.7
2023-02-21T22:54:44.888Z,26.4
2023-02-21T22:59:44.125Z,22.1
2023-02-21T23:04:43.400Z,22.4
2023-02-21T23:09:42.582Z,27.6
2023-02-21T23:14:41.816Z,24
2023-02-21T23:19:41.096Z,25.9
2023-02-21T23:24:40.348Z,19.1
2023-02-21T23:29:39.585Z,31
2023-02-21T23:34:38.842Z,29
2023-02-21T23:39:38.067Z,22
2023-02-21T23:44:37.300Z,21.2
2023-02-21T23:49:36.582Z,14.5
2023-02-21T23:54:35.795Z,15.8
2023-02-21T23:59:35.042Z,19.1
